Time;durP1;ratioP1;P1;durP2;ratioP2;P2;SDS_P1;SDS_P2;PMS_P1;PMS_P2;Temp;Humidity;BMP_temperature;BMP_pressure;BME280_temperature;BME280_humidity;BME280_pressure;Samples;Min_cycle;Max_cycle;Signal;HPM_P1;HPM_P2
2023/10/28 00:02:33;;;;;;;;;;;;;;;;;;112439;210;38707;-47
2023/10/28 00:05:12;;;;;;;;;;;;;;;;;;112412;210;45175;-45
2023/10/28 00:07:46;;;;;;;;;;;;;;;;;;112611;210;42766;-46
2023/10/28 00:10:21;;;;;;;;;;;;;;;;;;112524;210;41724;-46
2023/10/28 00:12:55;;;;;;;;;;;;;;;;;;112485;210;39098;-46
2023/10/28 00:15:28;;;;;;;;;;;;;;;;;;112385;210;45201;-46
2023/10/28 00:18:00;;;;;;;;;;;;;;;;;;112451;210;42818;-45
2023/10/28 00:20:34;;;;;;;;;;;;;;;;;;112480;210;41779;-45
2023/10/28 00:23:08;;;;;;;;;;;;;;;;;;112505;210;38764;-45
2023/10/28 00:25:47;;;;;;;;;;;;;;;;;;112593;210;45153;-45
2023/10/28 00:28:22;;;;;;;;;;;;;;;;;;112480;210;44123;-45
2023/10/28 00:30:54;;;;;;;;;;;;;;;;;;112502;210;41893;-45
2023/10/28 00:33:26;;;;;;;;;;;;;;;;;;112487;210;38882;-46
2023/10/28 00:36:00;;;;;;;;;;;;;;;;;;112416;210;45434;-45
2023/10/28 00:38:36;;;;;;;;;;;;;;;;;;112459;210;42844;-46
2023/10/28 00:41:13;;;;;;;;;;;;;;;;;;112480;210;42975;-46
2023/10/28 00:43:47;;;;;;;;;;;;;;;;;;112522;210;39024;-45
2023/10/28 00:46:26;;;;;;;;;;;;;;;;;;112432;210;45875;-45
2023/10/28 00:49:03;;;;;;;;;;;;;;;;;;112549;210;44066;-46
2023/10/28 00:51:38;;;;;;;;;;;;;;;;;;111789;210;892524;-44
2023/10/28 00:54:14;;;;;;;;;;;;;;;;;;112503;210;38719;-47
2023/10/28 00:56:51;;;;;;;;;;;;;;;;;;112512;210;45859;-45
2023/10/28 00:59:28;;;;;;;;;;;;;;;;;;112519;210;42799;-45
2023/10/28 01:02:12;;;;;;;;;;;;;;;;;;112534;210;41483;-46
2023/10/28 01:04:51;;;;;;;;;;;;;;;;;;112464;210;40577;-45
2023/10/28 01:07:24;;;;;;;;;;;;;;;;;;112538;210;39758;-45
2023/10/28 01:10:03;;;;;;;;;;;;;;;;;;112345;210;43042;-46
2023/10/28 01:12:37;;;;;;;;;;;;;;;;;;112536;210;41736;-46
2023/10/28 01:15:12;;;;;;;;;;;;;;;;;;112538;210;39057;-44
2023/10/28 01:17:46;;;;;;;;;;;;;;;;;;112578;210;39794;-45
2023/10/28 01:20:21;;;;;;;;;;;;;;;;;;112501;210;42991;-45
2023/10/28 01:22:58;;;;;;;;;;;;;;;;;;112542;210;41711;-44
2023/10/28 01:25:34;;;;;;;;;;;;;;;;;;112479;210;39121;-44
2023/10/28 01:28:14;;;;;;;;;;;;;;;;;;112309;210;39444;-45
2023/10/28 01:30:51;;;;;;;;;;;;;;;;;;112338;210;175796;-44
2023/10/28 01:33:23;;;;;;;;;;;;;;;;;;112463;210;41634;-45
2023/10/28 01:35:59;;;;;;;;;;;;;;;;;;112468;210;38874;-44
2023/10/28 01:38:36;;;;;;;;;;;;;;;;;;112455;210;40826;-45
2023/10/28 01:41:10;;;;;;;;;;;;;;;;;;112500;210;43162;-46
2023/10/28 01:43:44;;;;;;;;;;;;;;;;;;112465;210;41700;-46
2023/10/28 01:46:19;;;;;;;;;;;;;;;;;;112470;210;38793;-45
2023/10/28 01:48:55;;;;;;;;;;;;;;;;;;112519;210;39747;-45
2023/10/28 01:51:27;;;;;;;;;;;;;;;;;;112488;210;42770;-45
2023/10/28 01:54:00;;;;;;;;;;;;;;;;;;112470;210;41958;-46
2023/10/28 01:56:34;;;;;;;;;;;;;;;;;;112442;210;38595;-48
2023/10/28 01:59:09;;;;;;;;;;;;;;;;;;112504;210;39451;-47
2023/10/28 02:01:44;;;;;;;;;;;;;;;;;;112528;210;43001;-47
2023/10/28 02:04:18;;;;;;;;;;;;;;;;;;112583;210;41767;-45
2023/10/28 02:06:56;;;;;;;;;;;;;;;;;;112421;210;38679;-47
2023/10/28 02:09:33;;;;;;;;;;;;;;;;;;112461;210;39476;-44
2023/10/28 02:12:14;;;;;;;;;;;;;;;;;;112449;210;42980;-45
2023/10/28 02:14:47;;;;;;;;;;;;;;;;;;112449;210;41781;-45
2023/10/28 02:17:20;;;;;;;;;;;;;;;;;;112434;210;38761;-45
2023/10/28 02:19:52;;;;;;;;;;;;;;;;;;112465;210;39616;-46
2023/10/28 02:22:25;;;;;;;;;;;;;;;;;;112449;210;43171;-45
2023/10/28 02:25:08;;;;;;;;;;;;;;;;;;112325;210;175258;-46
2023/10/28 02:27:46;;;;;;;;;;;;;;;;;;112446;210;38691;-45
2023/10/28 02:30:22;;;;;;;;;;;;;;;;;;112498;210;39618;-44
2023/10/28 02:32:58;;;;;;;;;;;;;;;;;;112444;210;42738;-44
2023/10/28 02:35:32;;;;;;;;;;;;;;;;;;112442;210;43225;-46
2023/10/28 02:38:07;;;;;;;;;;;;;;;;;;112370;210;38818;-45
2023/10/28 02:40:47;;;;;;;;;;;;;;;;;;112422;210;39572;-47
2023/10/28 02:43:21;;;;;;;;;;;;;;;;;;112442;210;42858;-46
2023/10/28 02:45:55;;;;;;;;;;;;;;;;;;112431;210;41704;-46
2023/10/28 02:48:29;;;;;;;;;;;;;;;;;;112393;210;38703;-48
2023/10/28 02:51:08;;;;;;;;;;;;;;;;;;112470;210;39606;-45
2023/10/28 02:53:41;;;;;;;;;;;;;;;;;;111915;210;533681;-46
2023/10/28 02:56:17;;;;;;;;;;;;;;;;;;112425;210;41399;-48
2023/10/28 02:58:52;;;;;;;;;;;;;;;;;;112436;210;38896;-49
2023/10/28 03:01:26;;;;;;;;;;;;;;;;;;112463;210;39637;-45
2023/10/28 03:04:04;;;;;;;;;;;;;;;;;;112441;210;42855;-45
2023/10/28 03:06:44;;;;;;;;;;;;;;;;;;112569;210;41644;-49
2023/10/28 03:09:17;;;;;;;;;;;;;;;;;;112563;210;44314;-44
2023/10/28 03:11:49;;;;;;;;;;;;;;;;;;112614;210;39649;-46
2023/10/28 03:14:29;;;;;;;;;;;;;;;;;;112555;210;42845;-46
2023/10/28 03:17:03;;;;;;;;;;;;;;;;;;112614;210;42008;-46
2023/10/28 03:19:37;;;;;;;;;;;;;;;;;;112535;210;45857;-47
2023/10/28 03:22:12;;;;;;;;;;;;;;;;;;112604;210;41007;-44
2023/10/28 03:24:44;;;;;;;;;;;;;;;;;;112614;210;42862;-49
2023/10/28 03:27:20;;;;;;;;;;;;;;;;;;112581;210;41689;-47
2023/10/28 03:29:53;;;;;;;;;;;;;;;;;;112540;210;47009;-48
2023/10/28 03:32:26;;;;;;;;;;;;;;;;;;112519;210;41311;-44
2023/10/28 03:35:03;;;;;;;;;;;;;;;;;;112598;210;44020;-46
2023/10/28 03:37:43;;;;;;;;;;;;;;;;;;112588;210;43331;-44
2023/10/28 03:40:19;;;;;;;;;;;;;;;;;;112607;210;38683;-44
2023/10/28 03:42:55;;;;;;;;;;;;;;;;;;112597;210;39756;-44
2023/10/28 03:45:36;;;;;;;;;;;;;;;;;;112565;210;42512;-44
2023/10/28 03:48:10;;;;;;;;;;;;;;;;;;112602;210;41638;-44
2023/10/28 03:50:45;;;;;;;;;;;;;;;;;;112614;210;38834;-45
2023/10/28 03:53:20;;;;;;;;;;;;;;;;;;112614;210;40584;-44
2023/10/28 03:56:00;;;;;;;;;;;;;;;;;;112573;210;42776;-45
2023/10/28 03:58:35;;;;;;;;;;;;;;;;;;112537;210;42018;-44
2023/10/28 04:01:15;;;;;;;;;;;;;;;;;;112588;210;40031;-44
2023/10/28 04:03:51;;;;;;;;;;;;;;;;;;112652;210;41000;-45
2023/10/28 04:06:28;;;;;;;;;;;;;;;;;;112592;210;42912;-45
2023/10/28 04:09:08;;;;;;;;;;;;;;;;;;112468;210;41767;-44
2023/10/28 04:11:42;;;;;;;;;;;;;;;;;;112540;210;39011;-45
2023/10/28 04:14:16;;;;;;;;;;;;;;;;;;112542;210;39579;-46
2023/10/28 04:16:52;;;;;;;;;;;;;;;;;;112537;210;44029;-44
2023/10/28 04:19:26;;;;;;;;;;;;;;;;;;112502;210;42215;-46
2023/10/28 04:22:05;;;;;;;;;;;;;;;;;;111850;210;894100;-47
2023/10/28 04:24:38;;;;;;;;;;;;;;;;;;112519;210;40800;-45
2023/10/28 04:27:16;;;;;;;;;;;;;;;;;;112472;210;44075;-47
2023/10/28 04:29:51;;;;;;;;;;;;;;;;;;112447;210;41661;-44
2023/10/28 04:32:27;;;;;;;;;;;;;;;;;;112542;210;38678;-47
2023/10/28 04:35:04;;;;;;;;;;;;;;;;;;112504;210;40800;-48
2023/10/28 04:37:48;;;;;;;;;;;;;;;;;;112467;210;42628;-45
2023/10/28 04:40:24;;;;;;;;;;;;;;;;;;112438;210;42171;-45
2023/10/28 04:43:02;;;;;;;;;;;;;;;;;;112479;210;38416;-45
2023/10/28 04:45:35;;;;;;;;;;;;;;;;;;112460;210;40591;-45
2023/10/28 04:48:10;;;;;;;;;;;;;;;;;;112572;210;44031;-45
2023/10/28 04:50:50;;;;;;;;;;;;;;;;;;112565;210;41966;-45
2023/10/28 04:53:24;;;;;;;;;;;;;;;;;;112612;210;38719;-45
2023/10/28 04:55:56;;;;;;;;;;;;;;;;;;112525;210;41009;-48
2023/10/28 04:58:29;;;;;;;;;;;;;;;;;;112561;210;42834;-48
2023/10/28 05:01:06;;;;;;;;;;;;;;;;;;112486;210;42753;-46
2023/10/28 05:03:39;;;;;;;;;;;;;;;;;;112518;210;38723;-46
2023/10/28 05:06:12;;;;;;;;;;;;;;;;;;112454;210;39591;-46
2023/10/28 05:08:45;;;;;;;;;;;;;;;;;;112542;210;42930;-47
2023/10/28 05:11:18;;;;;;;;;;;;;;;;;;112471;210;41618;-44
2023/10/28 05:13:56;;;;;;;;;;;;;;;;;;112418;210;175694;-47
2023/10/28 05:16:31;;;;;;;;;;;;;;;;;;112550;210;39528;-44
2023/10/28 05:19:06;;;;;;;;;;;;;;;;;;112509;210;42806;-48
2023/10/28 05:21:43;;;;;;;;;;;;;;;;;;112516;210;41519;-49
2023/10/28 05:24:22;;;;;;;;;;;;;;;;;;112377;210;38973;-48
2023/10/28 05:26:57;;;;;;;;;;;;;;;;;;112537;210;39623;-45
2023/10/28 05:29:33;;;;;;;;;;;;;;;;;;112506;210;44219;-45
2023/10/28 05:32:10;;;;;;;;;;;;;;;;;;112511;210;41627;-45
2023/10/28 05:34:50;;;;;;;;;;;;;;;;;;112487;210;38701;-48
2023/10/28 05:37:26;;;;;;;;;;;;;;;;;;112531;210;39643;-46
2023/10/28 05:40:02;;;;;;;;;;;;;;;;;;112534;210;44230;-46
2023/10/28 05:42:40;;;;;;;;;;;;;;;;;;112460;210;47458;-45
2023/10/28 05:45:14;;;;;;;;;;;;;;;;;;112539;210;38489;-47
2023/10/28 05:47:48;;;;;;;;;;;;;;;;;;112537;210;39837;-47
2023/10/28 05:50:21;;;;;;;;;;;;;;;;;;112571;210;43267;-44
2023/10/28 05:52:59;;;;;;;;;;;;;;;;;;112596;210;49691;-46
2023/10/28 05:55:31;;;;;;;;;;;;;;;;;;112583;210;39843;-44
2023/10/28 05:58:05;;;;;;;;;;;;;;;;;;112479;210;39783;-45
2023/10/28 06:00:44;;;;;;;;;;;;;;;;;;112550;210;42950;-48
2023/10/28 06:03:18;;;;;;;;;;;;;;;;;;112554;210;41829;-49
2023/10/28 06:05:52;;;;;;;;;;;;;;;;;;112495;210;38690;-45
2023/10/28 06:08:25;;;;;;;;;;;;;;;;;;112524;210;39515;-46
2023/10/28 06:11:01;;;;;;;;;;;;;;;;;;112509;210;42567;-46
2023/10/28 06:13:36;;;;;;;;;;;;;;;;;;112316;210;201438;-45
2023/10/28 06:16:11;;;;;;;;;;;;;;;;;;112462;210;38859;-46
2023/10/28 06:18:48;;;;;;;;;;;;;;;;;;112462;210;39629;-45
2023/10/28 06:21:23;;;;;;;;;;;;;;;;;;112411;210;42790;-45
2023/10/28 06:23:57;;;;;;;;;;;;;;;;;;112426;210;47473;-48
2023/10/28 06:26:30;;;;;;;;;;;;;;;;;;112432;210;38519;-46
2023/10/28 06:29:08;;;;;;;;;;;;;;;;;;112429;210;39771;-45
2023/10/28 06:31:42;;;;;;;;;;;;;;;;;;112395;210;43034;-44
2023/10/28 06:34:15;;;;;;;;;;;;;;;;;;112454;210;49230;-45
2023/10/28 06:36:48;;;;;;;;;;;;;;;;;;112428;210;38677;-44
2023/10/28 06:39:20;;;;;;;;;;;;;;;;;;112422;210;39290;-45
2023/10/28 06:41:57;;;;;;;;;;;;;;;;;;112412;210;44029;-44
2023/10/28 06:44:32;;;;;;;;;;;;;;;;;;112436;210;49273;-44
2023/10/28 06:47:09;;;;;;;;;;;;;;;;;;112435;210;39769;-45
2023/10/28 06:49:44;;;;;;;;;;;;;;;;;;112430;210;39616;-47
2023/10/28 06:52:20;;;;;;;;;;;;;;;;;;112441;210;42952;-45
2023/10/28 06:54:56;;;;;;;;;;;;;;;;;;112402;210;47865;-44
2023/10/28 06:57:31;;;;;;;;;;;;;;;;;;112407;210;40258;-45
2023/10/28 07:00:17;;;;;;;;;;;;;;;;;;112423;210;41325;-45
2023/10/28 07:02:49;;;;;;;;;;;;;;;;;;112412;210;43000;-45
2023/10/28 07:05:24;;;;;;;;;;;;;;;;;;112438;210;41659;-44
2023/10/28 07:08:00;;;;;;;;;;;;;;;;;;112508;210;38934;-45
2023/10/28 07:10:33;;;;;;;;;;;;;;;;;;112531;210;39412;-45
2023/10/28 07:13:08;;;;;;;;;;;;;;;;;;112492;210;43059;-44
2023/10/28 07:15:45;;;;;;;;;;;;;;;;;;112491;210;42043;-46
2023/10/28 07:18:19;;;;;;;;;;;;;;;;;;112408;211;38900;-45
2023/10/28 07:20:56;;;;;;;;;;;;;;;;;;112445;211;39641;-45
2023/10/28 07:23:30;;;;;;;;;;;;;;;;;;112464;211;42815;-47
2023/10/28 07:26:03;;;;;;;;;;;;;;;;;;112464;211;41626;-45
2023/10/28 07:28:37;;;;;;;;;;;;;;;;;;112473;211;39043;-45
2023/10/28 07:31:15;;;;;;;;;;;;;;;;;;112512;210;39987;-45
2023/10/28 07:33:56;;;;;;;;;;;;;;;;;;112490;210;42889;-45
2023/10/28 07:36:32;;;;;;;;;;;;;;;;;;112629;210;41752;-46
2023/10/28 07:39:06;;;;;;;;;;;;;;;;;;112575;210;38787;-46
2023/10/28 07:41:41;;;;;;;;;;;;;;;;;;112591;210;39421;-45
2023/10/28 07:44:17;;;;;;;;;;;;;;;;;;112479;210;42596;-44
2023/10/28 07:46:51;;;;;;;;;;;;;;;;;;112523;210;41597;-45
2023/10/28 07:49:24;;;;;;;;;;;;;;;;;;112581;210;38830;-45
2023/10/28 07:52:00;;;;;;;;;;;;;;;;;;112669;210;39578;-46
2023/10/28 07:54:38;;;;;;;;;;;;;;;;;;112529;210;42590;-47
2023/10/28 07:57:15;;;;;;;;;;;;;;;;;;112609;210;42745;-45
2023/10/28 07:59:51;;;;;;;;;;;;;;;;;;112625;210;38894;-44
2023/10/28 08:02:27;;;;;;;;;;;;;;;;;;112671;210;39678;-46
2023/10/28 08:05:01;;;;;;;;;;;;;;;;;;112640;210;43140;-44
2023/10/28 08:07:40;;;;;;;;;;;;;;;;;;112637;210;41397;-45
2023/10/28 08:10:22;;;;;;;;;;;;;;;;;;112592;210;39869;-48
2023/10/28 08:12:56;;;;;;;;;;;;;;;;;;112567;210;41037;-44
2023/10/28 08:15:35;;;;;;;;;;;;;;;;;;112403;210;42799;-44
2023/10/28 08:18:13;;;;;;;;;;;;;;;;;;112520;210;42158;-44
2023/10/28 08:20:50;;;;;;;;;;;;;;;;;;112536;210;38721;-45
2023/10/28 08:23:24;;;;;;;;;;;;;;;;;;112485;210;39522;-44
2023/10/28 08:25:59;;;;;;;;;;;;;;;;;;112480;210;43070;-46
2023/10/28 08:28:32;;;;;;;;;;;;;;;;;;112487;210;41826;-46
2023/10/28 08:31:06;;;;;;;;;;;;;;;;;;112472;210;40143;-45
2023/10/28 08:33:43;;;;;;;;;;;;;;;;;;112536;210;39761;-46
2023/10/28 08:36:17;;;;;;;;;;;;;;;;;;112524;210;42754;-49
2023/10/28 08:38:53;;;;;;;;;;;;;;;;;;112527;210;41410;-46
2023/10/28 08:41:26;;;;;;;;;;;;;;;;;;112543;210;38566;-44
2023/10/28 08:44:03;;;;;;;;;;;;;;;;;;112564;210;39557;-47
2023/10/28 08:46:40;;;;;;;;;;;;;;;;;;112545;210;43107;-44
2023/10/28 08:49:15;;;;;;;;;;;;;;;;;;112464;210;175551;-45
2023/10/28 08:51:52;;;;;;;;;;;;;;;;;;112576;210;38720;-45
2023/10/28 08:54:38;;;;;;;;;;;;;;;;;;112542;210;39599;-45
2023/10/28 08:57:11;;;;;;;;;;;;;;;;;;112497;210;176262;-45
2023/10/28 08:59:43;;;;;;;;;;;;;;;;;;112536;210;41781;-44
2023/10/28 09:02:22;;;;;;;;;;;;;;;;;;112540;210;38759;-45
2023/10/28 09:04:58;;;;;;;;;;;;;;;;;;112578;210;39611;-45
2023/10/28 09:07:33;;;;;;;;;;;;;;;;;;112482;210;50093;-44
2023/10/28 09:10:10;;;;;;;;;;;;;;;;;;112561;210;41800;-48
2023/10/28 09:12:46;;;;;;;;;;;;;;;;;;112594;210;39220;-46
2023/10/28 09:15:25;;;;;;;;;;;;;;;;;;112427;210;40144;-46
2023/10/28 09:18:01;;;;;;;;;;;;;;;;;;112418;210;175557;-44
2023/10/28 09:20:40;;;;;;;;;;;;;;;;;;112554;210;41821;-44
2023/10/28 09:23:16;;;;;;;;;;;;;;;;;;112518;210;38642;-45
2023/10/28 09:25:51;;;;;;;;;;;;;;;;;;112524;210;39440;-46
2023/10/28 09:28:27;;;;;;;;;;;;;;;;;;112536;210;42946;-44
2023/10/28 09:31:00;;;;;;;;;;;;;;;;;;112479;210;41679;-45
2023/10/28 09:33:36;;;;;;;;;;;;;;;;;;112464;210;38692;-45
2023/10/28 09:36:10;;;;;;;;;;;;;;;;;;112442;210;39455;-45
2023/10/28 09:38:44;;;;;;;;;;;;;;;;;;112454;210;42950;-47
2023/10/28 09:41:21;;;;;;;;;;;;;;;;;;112451;210;41670;-48
2023/10/28 09:43:54;;;;;;;;;;;;;;;;;;112510;210;38744;-47
2023/10/28 09:46:36;;;;;;;;;;;;;;;;;;112419;210;39876;-48
2023/10/28 09:49:15;;;;;;;;;;;;;;;;;;112439;210;43006;-47
2023/10/28 09:51:52;;;;;;;;;;;;;;;;;;112476;210;41445;-49
2023/10/28 09:54:30;;;;;;;;;;;;;;;;;;112493;210;38722;-44
2023/10/28 09:57:07;;;;;;;;;;;;;;;;;;112438;210;39595;-46
2023/10/28 09:59:44;;;;;;;;;;;;;;;;;;112474;210;42829;-46
2023/10/28 10:02:34;;;;;;;;;;;;;;;;;;112501;210;41641;-44
2023/10/28 10:05:11;;;;;;;;;;;;;;;;;;112478;210;38478;-46
2023/10/28 10:07:46;;;;;;;;;;;;;;;;;;112524;210;39662;-44
2023/10/28 10:10:23;;;;;;;;;;;;;;;;;;112546;210;42990;-46
2023/10/28 10:13:06;;;;;;;;;;;;;;;;;;112479;210;41608;-49
2023/10/28 10:15:42;;;;;;;;;;;;;;;;;;112454;210;38568;-45
2023/10/28 10:18:21;;;;;;;;;;;;;;;;;;111798;210;892182;-44
2023/10/28 10:21:05;;;;;;;;;;;;;;;;;;112481;210;43148;-46
2023/10/28 10:23:44;;;;;;;;;;;;;;;;;;112494;210;41739;-41
2023/10/28 10:26:25;;;;;;;;;;;;;;;;;;112432;210;38712;-42
2023/10/28 10:28:59;;;;;;;;;;;;;;;;;;112432;210;39578;-42
2023/10/28 10:31:35;;;;;;;;;;;;;;;;;;112475;210;43103;-40
2023/10/28 10:34:10;;;;;;;;;;;;;;;;;;112376;210;41663;-43
2023/10/28 10:36:51;;;;;;;;;;;;;;;;;;112342;210;39078;-44
2023/10/28 10:39:29;;;;;;;;;;;;;;;;;;112370;210;46950;-42
2023/10/28 10:42:12;;;;;;;;;;;;;;;;;;112408;210;43882;-42
2023/10/28 10:44:48;;;;;;;;;;;;;;;;;;112425;210;43249;-44
2023/10/28 10:47:27;;;;;;;;;;;;;;;;;;112388;210;38501;-44
2023/10/28 10:50:05;;;;;;;;;;;;;;;;;;111665;210;909305;-41
2023/10/28 10:52:43;;;;;;;;;;;;;;;;;;112360;210;42696;-44
2023/10/28 10:55:23;;;;;;;;;;;;;;;;;;111909;210;533477;-41
2023/10/28 10:57:58;;;;;;;;;;;;;;;;;;112424;210;38724;-41
2023/10/28 11:00:34;;;;;;;;;;;;;;;;;;112404;210;39567;-42
2023/10/28 11:03:10;;;;;;;;;;;;;;;;;;112390;210;42968;-43
2023/10/28 11:05:46;;;;;;;;;;;;;;;;;;112427;210;41861;-42
2023/10/28 11:08:21;;;;;;;;;;;;;;;;;;112473;210;39153;-42
2023/10/28 11:10:55;;;;;;;;;;;;;;;;;;112466;210;40770;-42
2023/10/28 11:13:29;;;;;;;;;;;;;;;;;;112513;210;42770;-41
2023/10/28 11:16:07;;;;;;;;;;;;;;;;;;112507;210;42041;-42
2023/10/28 11:18:45;;;;;;;;;;;;;;;;;;112542;210;38826;-43
2023/10/28 11:21:28;;;;;;;;;;;;;;;;;;112517;210;39597;-42
2023/10/28 11:24:05;;;;;;;;;;;;;;;;;;112581;210;42938;-41
2023/10/28 11:26:50;;;;;;;;;;;;;;;;;;112589;210;41806;-42
2023/10/28 11:29:28;;;;;;;;;;;;;;;;;;112560;210;38752;-45
2023/10/28 11:32:12;;;;;;;;;;;;;;;;;;112432;210;175578;-42
2023/10/28 11:34:47;;;;;;;;;;;;;;;;;;112544;210;42581;-41
2023/10/28 11:37:23;;;;;;;;;;;;;;;;;;112513;210;41693;-42
2023/10/28 11:40:01;;;;;;;;;;;;;;;;;;112531;210;38730;-42
2023/10/28 11:42:39;;;;;;;;;;;;;;;;;;112437;210;39763;-40
2023/10/28 11:45:16;;;;;;;;;;;;;;;;;;112544;210;42965;-45
2023/10/28 11:47:53;;;;;;;;;;;;;;;;;;112605;210;41607;-41
2023/10/28 11:50:28;;;;;;;;;;;;;;;;;;112452;210;40006;-43
2023/10/28 11:53:05;;;;;;;;;;;;;;;;;;112568;210;40075;-44
2023/10/28 11:55:37;;;;;;;;;;;;;;;;;;112616;210;44561;-43
2023/10/28 11:58:11;;;;;;;;;;;;;;;;;;112589;210;41556;-42
2023/10/28 12:00:50;;;;;;;;;;;;;;;;;;112526;210;38469;-43
2023/10/28 12:03:28;;;;;;;;;;;;;;;;;;112538;210;39746;-46
2023/10/28 12:06:07;;;;;;;;;;;;;;;;;;112497;210;44110;-43
2023/10/28 12:08:53;;;;;;;;;;;;;;;;;;112528;210;42933;-43
2023/10/28 12:11:30;;;;;;;;;;;;;;;;;;112374;210;38706;-43
2023/10/28 12:14:03;;;;;;;;;;;;;;;;;;112563;210;39641;-42
2023/10/28 12:16:41;;;;;;;;;;;;;;;;;;112549;210;43917;-43
2023/10/28 12:19:15;;;;;;;;;;;;;;;;;;112615;210;41627;-46
2023/10/28 12:21:54;;;;;;;;;;;;;;;;;;112526;210;38720;-40
2023/10/28 12:24:33;;;;;;;;;;;;;;;;;;112565;210;39651;-40
2023/10/28 12:27:11;;;;;;;;;;;;;;;;;;112549;210;43944;-43
2023/10/28 12:29:45;;;;;;;;;;;;;;;;;;112558;210;41689;-39
2023/10/28 12:32:22;;;;;;;;;;;;;;;;;;112250;210;38724;-42
2023/10/28 12:34:57;;;;;;;;;;;;;;;;;;112519;210;41094;-42
2023/10/28 12:37:36;;;;;;;;;;;;;;;;;;112472;210;43118;-40
2023/10/28 12:40:11;;;;;;;;;;;;;;;;;;112424;210;42983;-40
2023/10/28 12:42:42;;;;;;;;;;;;;;;;;;112309;210;38694;-39
2023/10/28 12:45:21;;;;;;;;;;;;;;;;;;112497;210;39745;-39
2023/10/28 12:47:59;;;;;;;;;;;;;;;;;;112507;210;41792;-40
2023/10/28 12:50:43;;;;;;;;;;;;;;;;;;112499;210;44104;-40
2023/10/28 12:53:15;;;;;;;;;;;;;;;;;;112457;210;40020;-40
2023/10/28 12:55:53;;;;;;;;;;;;;;;;;;112472;210;40140;-40
2023/10/28 12:58:28;;;;;;;;;;;;;;;;;;112448;210;43881;-40
2023/10/28 13:01:02;;;;;;;;;;;;;;;;;;112494;210;42852;-40
2023/10/28 13:03:37;;;;;;;;;;;;;;;;;;112438;210;38859;-40
2023/10/28 13:06:12;;;;;;;;;;;;;;;;;;112499;210;39663;-40
2023/10/28 13:08:50;;;;;;;;;;;;;;;;;;112438;210;43288;-40
2023/10/28 13:11:23;;;;;;;;;;;;;;;;;;112464;210;41625;-40
2023/10/28 13:14:00;;;;;;;;;;;;;;;;;;112400;210;44654;-40
2023/10/28 13:16:37;;;;;;;;;;;;;;;;;;112428;210;39594;-40
2023/10/28 13:19:10;;;;;;;;;;;;;;;;;;112452;210;42710;-40
2023/10/28 13:21:46;;;;;;;;;;;;;;;;;;112297;210;41643;-40
2023/10/28 13:24:20;;;;;;;;;;;;;;;;;;112481;210;38769;-40
2023/10/28 13:26:56;;;;;;;;;;;;;;;;;;112450;210;39847;-41
2023/10/28 13:29:33;;;;;;;;;;;;;;;;;;112423;210;44331;-42
2023/10/28 13:32:11;;;;;;;;;;;;;;;;;;112376;210;41623;-40
2023/10/28 13:34:44;;;;;;;;;;;;;;;;;;112468;210;38736;-40
2023/10/28 13:37:21;;;;;;;;;;;;;;;;;;112445;210;39883;-40
2023/10/28 13:40:01;;;;;;;;;;;;;;;;;;112451;210;42961;-41
2023/10/28 13:42:34;;;;;;;;;;;;;;;;;;112471;210;41761;-40
2023/10/28 13:45:15;;;;;;;;;;;;;;;;;;112496;210;38705;-41
2023/10/28 13:47:54;;;;;;;;;;;;;;;;;;112533;210;40686;-40
2023/10/28 13:50:32;;;;;;;;;;;;;;;;;;112346;210;176876;-40
2023/10/28 13:53:07;;;;;;;;;;;;;;;;;;112476;210;41780;-40
2023/10/28 13:55:44;;;;;;;;;;;;;;;;;;112490;210;38939;-40
2023/10/28 13:58:19;;;;;;;;;;;;;;;;;;112495;210;39643;-40
2023/10/28 14:00:55;;;;;;;;;;;;;;;;;;112459;210;43188;-40
2023/10/28 14:03:30;;;;;;;;;;;;;;;;;;112460;210;41637;-40
2023/10/28 14:06:08;;;;;;;;;;;;;;;;;;112476;210;38854;-41
2023/10/28 14:08:48;;;;;;;;;;;;;;;;;;112484;210;39713;-40
2023/10/28 14:11:26;;;;;;;;;;;;;;;;;;112492;210;43177;-40
2023/10/28 14:14:01;;;;;;;;;;;;;;;;;;112371;210;41767;-40
2023/10/28 14:16:37;;;;;;;;;;;;;;;;;;112490;210;38712;-40
2023/10/28 14:19:11;;;;;;;;;;;;;;;;;;112431;210;40101;-40
2023/10/28 14:21:43;;;;;;;;;;;;;;;;;;112433;210;42846;-40
2023/10/28 14:24:19;;;;;;;;;;;;;;;;;;112445;210;41706;-40
2023/10/28 14:26:54;;;;;;;;;;;;;;;;;;112432;210;38734;-41
2023/10/28 14:29:30;;;;;;;;;;;;;;;;;;112469;211;39910;-40
2023/10/28 14:32:06;;;;;;;;;;;;;;;;;;112438;210;42778;-40
2023/10/28 14:34:46;;;;;;;;;;;;;;;;;;112397;210;41652;-40
2023/10/28 14:37:24;;;;;;;;;;;;;;;;;;112452;210;38829;-40
2023/10/28 14:39:56;;;;;;;;;;;;;;;;;;112456;210;39608;-41
2023/10/28 14:42:33;;;;;;;;;;;;;;;;;;112433;210;42828;-40
2023/10/28 14:45:12;;;;;;;;;;;;;;;;;;112304;210;175661;-40
2023/10/28 14:47:46;;;;;;;;;;;;;;;;;;112488;210;38756;-40
2023/10/28 14:50:20;;;;;;;;;;;;;;;;;;112428;210;39614;-41
2023/10/28 14:52:56;;;;;;;;;;;;;;;;;;112409;210;43006;-40
2023/10/28 14:55:35;;;;;;;;;;;;;;;;;;112430;210;41789;-40
2023/10/28 14:58:12;;;;;;;;;;;;;;;;;;112412;210;39221;-41
2023/10/28 15:01:06;;;;;;;;;;;;;;;;;;112444;210;39331;-41
2023/10/28 15:03:44;;;;;;;;;;;;;;;;;;112460;210;42994;-40
2023/10/28 15:06:22;;;;;;;;;;;;;;;;;;112399;210;49489;-40
2023/10/28 15:08:58;;;;;;;;;;;;;;;;;;112447;210;39038;-40
2023/10/28 15:11:38;;;;;;;;;;;;;;;;;;112474;210;40003;-40
2023/10/28 15:14:19;;;;;;;;;;;;;;;;;;112511;210;44015;-40
2023/10/28 15:16:53;;;;;;;;;;;;;;;;;;112592;210;41838;-40
2023/10/28 15:19:29;;;;;;;;;;;;;;;;;;112575;210;38468;-40
2023/10/28 15:22:04;;;;;;;;;;;;;;;;;;112561;210;39784;-40
2023/10/28 15:24:37;;;;;;;;;;;;;;;;;;112377;210;44078;-40
2023/10/28 15:27:14;;;;;;;;;;;;;;;;;;112596;210;41870;-40
2023/10/28 15:29:48;;;;;;;;;;;;;;;;;;112615;210;38939;-41
2023/10/28 15:32:25;;;;;;;;;;;;;;;;;;112468;210;39603;-40
2023/10/28 15:35:01;;;;;;;;;;;;;;;;;;112451;210;43032;-40
2023/10/28 15:37:34;;;;;;;;;;;;;;;;;;112439;210;41671;-40
2023/10/28 15:40:20;;;;;;;;;;;;;;;;;;111781;210;894241;-40
2023/10/28 15:42:54;;;;;;;;;;;;;;;;;;112579;210;40757;-40
2023/10/28 15:45:33;;;;;;;;;;;;;;;;;;112557;210;42860;-40
2023/10/28 15:48:08;;;;;;;;;;;;;;;;;;112620;210;41655;-41
2023/10/28 15:50:43;;;;;;;;;;;;;;;;;;112577;210;38676;-40
2023/10/28 15:53:17;;;;;;;;;;;;;;;;;;112604;210;39720;-40
2023/10/28 15:55:52;;;;;;;;;;;;;;;;;;112551;210;42831;-40
2023/10/28 15:58:25;;;;;;;;;;;;;;;;;;112596;210;42131;-40
2023/10/28 16:01:02;;;;;;;;;;;;;;;;;;112596;210;38795;-40
2023/10/28 16:03:36;;;;;;;;;;;;;;;;;;112512;210;39949;-40
2023/10/28 16:06:15;;;;;;;;;;;;;;;;;;112538;210;43179;-40
2023/10/28 16:08:54;;;;;;;;;;;;;;;;;;112564;210;41788;-40
2023/10/28 16:11:30;;;;;;;;;;;;;;;;;;112542;210;38764;-40
2023/10/28 16:14:06;;;;;;;;;;;;;;;;;;112485;210;39825;-40
2023/10/28 16:16:40;;;;;;;;;;;;;;;;;;112491;210;42807;-40
2023/10/28 16:19:16;;;;;;;;;;;;;;;;;;112482;210;41781;-40
2023/10/28 16:21:51;;;;;;;;;;;;;;;;;;112522;210;38698;-40
2023/10/28 16:24:22;;;;;;;;;;;;;;;;;;112484;210;39799;-41
2023/10/28 16:27:01;;;;;;;;;;;;;;;;;;112464;210;42791;-41
2023/10/28 16:29:40;;;;;;;;;;;;;;;;;;112381;210;175626;-41
2023/10/28 16:32:15;;;;;;;;;;;;;;;;;;111729;210;895803;-40
2023/10/28 16:34:49;;;;;;;;;;;;;;;;;;112423;210;39784;-41
2023/10/28 16:37:23;;;;;;;;;;;;;;;;;;112286;210;175635;-40
2023/10/28 16:40:02;;;;;;;;;;;;;;;;;;112469;210;41881;-40
2023/10/28 16:42:38;;;;;;;;;;;;;;;;;;112577;210;39100;-41
2023/10/28 16:45:14;;;;;;;;;;;;;;;;;;112541;210;39634;-41
2023/10/28 16:47:53;;;;;;;;;;;;;;;;;;112463;210;42860;-40
2023/10/28 16:50:31;;;;;;;;;;;;;;;;;;112503;210;41427;-41
2023/10/28 16:53:08;;;;;;;;;;;;;;;;;;112542;210;38828;-41
2023/10/28 16:55:44;;;;;;;;;;;;;;;;;;112510;210;39697;-40
2023/10/28 16:58:20;;;;;;;;;;;;;;;;;;112483;210;42861;-41
2023/10/28 17:00:56;;;;;;;;;;;;;;;;;;112456;210;41685;-40
2023/10/28 17:03:30;;;;;;;;;;;;;;;;;;112497;210;38814;-40
2023/10/28 17:06:08;;;;;;;;;;;;;;;;;;112468;210;39823;-40
2023/10/28 17:08:44;;;;;;;;;;;;;;;;;;112454;210;48282;-40
2023/10/28 17:11:23;;;;;;;;;;;;;;;;;;111839;210;894075;-43
2023/10/28 17:13:56;;;;;;;;;;;;;;;;;;112530;210;40130;-41
2023/10/28 17:16:29;;;;;;;;;;;;;;;;;;112552;210;39671;-39
2023/10/28 17:19:03;;;;;;;;;;;;;;;;;;112442;210;48635;-38
2023/10/28 17:21:40;;;;;;;;;;;;;;;;;;112497;210;41721;-39
2023/10/28 17:24:15;;;;;;;;;;;;;;;;;;112460;210;38700;-38
2023/10/28 17:26:51;;;;;;;;;;;;;;;;;;112472;210;39766;-37
2023/10/28 17:29:27;;;;;;;;;;;;;;;;;;112496;210;42934;-38
2023/10/28 17:32:04;;;;;;;;;;;;;;;;;;112424;210;42879;-40
2023/10/28 17:34:42;;;;;;;;;;;;;;;;;;112372;210;38730;-40
2023/10/28 17:37:19;;;;;;;;;;;;;;;;;;112395;210;40920;-40
2023/10/28 17:39:54;;;;;;;;;;;;;;;;;;112289;210;175653;-42
2023/10/28 17:42:27;;;;;;;;;;;;;;;;;;112344;210;175594;-41
2023/10/28 17:45:03;;;;;;;;;;;;;;;;;;112369;210;38734;-40